Eships Dana — ZDJT6 — position and weather

sailwx.info

Track history (hours):
 
Tides and Currents Weather Stations Pressure Air Temp Water Temp Dewpoint Dewpoint Depression Visibility Wind Speed Wind Dir Waves Ship Positions

Eships Dana

Last reported at 2016-May-01 16:33 UTC. Time now 2016-May-01 17:24 UTC.
Position N 49°50' W 002°46'.

Length 116 m; draft 6.7 m.

Type: Tanker. MMSI: 236566000.

Date/timePositionNaut miles runAvg speedWind from/ knotsBaromVisibWave heightAir tempDewpointWater temp
2016-May-01 16:33N 49°50' W 002°46'1615.8
2016-May-01 15:32N 49°43' W 003°09'10215.8
2016-May-01 09:04N 48°50' W 005°22'10011.7
2016-May-01 00:33N 47°24' W 004°07'1514.8
2016-Apr-30 23:33N 47°18' W 003°47'1514.5
2016-Apr-30 22:33N 47°12' W 003°28'1414.3
2016-Apr-30 21:33N 47°06' W 003°08'1313.4
2016-Apr-30 20:33N 47°01' W 002°51'1312.6
2016-Apr-30 19:34N 47°03' W 002°33'1211.5
2016-Apr-30 18:33N 47°10' W 002°19'1111.0
2016-Apr-30 17:33N 47°18' W 002°08'3 2.7
2016-Apr-30 16:29N 47°18' W 002°04'0 0.0
2016-Apr-30 14:29N 47°18' W 002°04'0 0.0
2016-Apr-30 13:32N 47°18' W 002°04'0 0.0
2016-Apr-30 12:11N 47°18' W 002°04'0 0.0
2016-Apr-30 11:26N 47°18' W 002°04'0 0.0
2016-Apr-30 10:32N 47°18' W 002°04'0 0.0
2016-Apr-30 09:11N 47°18' W 002°04'0 0.0
2016-Apr-30 08:29N 47°18' W 002°04'0 0.0
2016-Apr-30 07:32N 47°18' W 002°04'0 0.0
2016-Apr-30 06:29N 47°18' W 002°04'0 0.0
2016-Apr-30 05:29N 47°18' W 002°04'0 0.0
2016-Apr-30 04:32N 47°18' W 002°04'0 0.0
2016-Apr-30 03:32N 47°18' W 002°04'0 0.0
2016-Apr-30 02:32N 47°18' W 002°04'0 0.0
2016-Apr-30 01:32N 47°18' W 002°04'0 0.0
2016-Apr-30 00:32N 47°18' W 002°04'0 0.0
2016-Apr-29 23:32N 47°18' W 002°04'0 0.0
2016-Apr-29 22:32N 47°18' W 002°04'0 0.0
2016-Apr-29 21:32N 47°18' W 002°04'0 0.0
2016-Apr-29 20:32N 47°18' W 002°04'0 0.0
2016-Apr-29 19:32N 47°18' W 002°04'0 0.0
2016-Apr-29 18:32N 47°18' W 002°04'0 0.0
2016-Apr-29 17:32N 47°18' W 002°04'0 0.0
2016-Apr-29 16:32N 47°18' W 002°04'0 0.0
2016-Apr-29 15:29N 47°18' W 002°04'0 0.0
2016-Apr-29 14:32N 47°18' W 002°04'0 0.0
2016-Apr-29 13:32N 47°18' W 002°04'0 0.0
2016-Apr-29 12:14N 47°18' W 002°04'0 0.0
2016-Apr-29 11:32N 47°18' W 002°04'0 0.0
2016-Apr-29 10:32N 47°18' W 002°04'0 0.0
2016-Apr-29 09:32N 47°18' W 002°04'0 0.0
2016-Apr-29 08:33N 47°18' W 002°04'5 4.8
2016-Apr-29 07:33N 47°17' W 002°11'1212.4
2016-Apr-29 06:33N 47°08' W 002°23'2 2.3
2016-Apr-29 05:33N 47°09' W 002°26'0 0.0
2016-Apr-29 04:30N 47°09' W 002°26'0 0.0
2016-Apr-29 03:33N 47°09' W 002°26'0 0.0
2016-Apr-29 02:33N 47°09' W 002°26'0 0.1
2016-Apr-29 01:33N 47°09' W 002°27'0 0.1
2016-Apr-29 00:33N 47°09' W 002°26'0 0.1
2016-Apr-28 23:33N 47°09' W 002°27'0 0.0
2016-Apr-28 22:33N 47°09' W 002°27'0 0.1
2016-Apr-28 21:33N 47°09' W 002°26'0 0.0
2016-Apr-28 20:33N 47°09' W 002°26'0 0.0
2016-Apr-28 19:33N 47°09' W 002°26'0 0.1
2016-Apr-28 18:30N 47°09' W 002°26'0 0.0
2016-Apr-28 17:33N 47°09' W 002°26'0 0.0
2016-Apr-28 16:33N 47°09' W 002°26'0 0.0
2016-Apr-28 15:33N 47°09' W 002°26'0 0.0
2016-Apr-28 14:33N 47°09' W 002°26'0 0.1
2016-Apr-28 13:33N 47°09' W 002°27'0 0.1
2016-Apr-28 12:33N 47°09' W 002°27'0 0.0
2016-Apr-28 11:33N 47°09' W 002°27'0 0.1
2016-Apr-28 10:33N 47°09' W 002°27'0 0.1
2016-Apr-28 09:33N 47°09' W 002°27'0 0.0
2016-Apr-28 08:33N 47°09' W 002°26'0 0.0
2016-Apr-28 07:34N 47°09' W 002°26'0 0.0
2016-Apr-28 06:34N 47°09' W 002°26'0 0.0
2016-Apr-28 05:33N 47°09' W 002°26'0 0.0
2016-Apr-28 04:34N 47°09' W 002°26'0 0.0
2016-Apr-28 03:33N 47°09' W 002°26'0 0.1
2016-Apr-28 02:33N 47°09' W 002°26'0 0.2
2016-Apr-28 01:33N 47°09' W 002°27'0 0.0
2016-Apr-28 00:33N 47°09' W 002°27'0 0.0
2016-Apr-27 23:33N 47°09' W 002°27'0 0.1
2016-Apr-27 22:34N 47°09' W 002°27'0 0.0
2016-Apr-27 21:33N 47°09' W 002°27'0 0.1
2016-Apr-27 20:33N 47°09' W 002°27'0 0.1
2016-Apr-27 19:30N 47°09' W 002°26'0 0.0
2016-Apr-27 18:33N 47°09' W 002°26'0 0.0
2016-Apr-27 17:33N 47°09' W 002°26'0 0.0
2016-Apr-27 16:33N 47°09' W 002°26'0 0.0
2016-Apr-27 15:33N 47°09' W 002°26'0 0.0
2016-Apr-27 14:30N 47°09' W 002°26'0 0.0
2016-Apr-27 13:33N 47°09' W 002°26'0 0.1
2016-Apr-27 12:30N 47°09' W 002°27'0 0.0
2016-Apr-27 11:33N 47°09' W 002°27'0 0.0
2016-Apr-27 10:33N 47°09' W 002°27'0 0.1
2016-Apr-27 09:33N 47°09' W 002°26'0 0.0
2016-Apr-27 08:33N 47°09' W 002°26'0 0.0
2016-Apr-27 07:33N 47°09' W 002°26'0 0.0
2016-Apr-27 06:34N 47°09' W 002°26'0 0.0
2016-Apr-27 05:33N 47°09' W 002°26'0 0.0
2016-Apr-27 04:33N 47°09' W 002°26'0 0.0
2016-Apr-27 03:33N 47°09' W 002°26'0 0.0
2016-Apr-27 02:33N 47°09' W 002°26'0 0.0
2016-Apr-27 01:33N 47°09' W 002°26'0 0.1
2016-Apr-27 00:33N 47°09' W 002°27'0 0.1
2016-Apr-26 23:33N 47°09' W 002°27'0 0.0
2016-Apr-26 22:33N 47°09' W 002°27'0 0.0
2016-Apr-26 21:33N 47°09' W 002°27'0 0.1
2016-Apr-26 20:33N 47°09' W 002°27'0 0.0
2016-Apr-26 19:33N 47°09' W 002°27'7 6.8
2016-Apr-26 18:33N 47°12' W 002°17'1111.1
2016-Apr-26 17:33N 47°18' W 002°04'0 0.3
2016-Apr-26 16:25N 47°18' W 002°04'0 0.0
2016-Apr-26 15:31N 47°18' W 002°04'0 0.0
2016-Apr-26 14:31N 47°18' W 002°04'0 0.0
2016-Apr-26 13:31N 47°18' W 002°04'0 0.0
2016-Apr-26 12:31N 47°18' W 002°04'0 0.0
2016-Apr-26 11:31N 47°18' W 002°04'0 0.0
2016-Apr-26 10:31N 47°18' W 002°04'0 0.0
2016-Apr-26 09:31N 47°18' W 002°04'0 0.0
2016-Apr-26 08:31N 47°18' W 002°04'0 0.0
2016-Apr-26 07:31N 47°18' W 002°04'0 0.0
2016-Apr-26 06:31N 47°18' W 002°04'0 0.0
2016-Apr-26 05:28N 47°18' W 002°04'0 0.0
2016-Apr-26 04:28N 47°18' W 002°04'0 0.0
2016-Apr-26 03:31N 47°18' W 002°04'0 0.0
2016-Apr-26 02:31N 47°18' W 002°04'0 0.0
2016-Apr-26 01:28N 47°18' W 002°04'0 0.0
2016-Apr-26 00:31N 47°18' W 002°04'0 0.0
2016-Apr-25 23:31N 47°18' W 002°04'0 0.0
2016-Apr-25 22:31N 47°18' W 002°04'0 0.0
2016-Apr-25 21:31N 47°18' W 002°04'0 0.0
2016-Apr-25 20:31N 47°18' W 002°04'0 0.0
2016-Apr-25 19:31N 47°18' W 002°04'0 0.0
2016-Apr-25 18:31N 47°18' W 002°04'0 0.0
2016-Apr-25 17:31N 47°18' W 002°04'0 0.0
2016-Apr-25 16:31N 47°18' W 002°04'0 0.0
2016-Apr-25 15:28N 47°18' W 002°04'0 0.0
2016-Apr-25 14:31N 47°18' W 002°04'0 0.0
2016-Apr-25 13:31N 47°18' W 002°04'0 0.0
2016-Apr-25 12:31N 47°18' W 002°04'0 0.0
2016-Apr-25 11:31N 47°18' W 002°04'0 0.0
2016-Apr-25 10:31N 47°18' W 002°04'0 0.0
2016-Apr-25 09:31N 47°18' W 002°04'0 0.0
2016-Apr-25 08:31N 47°18' W 002°04'0 0.0
2016-Apr-25 07:31N 47°18' W 002°04'0 0.0
2016-Apr-25 06:31N 47°18' W 002°04'0 0.0
2016-Apr-25 05:31N 47°18' W 002°04'0 0.0
2016-Apr-25 04:31N 47°18' W 002°04'0 0.0
2016-Apr-25 03:31N 47°18' W 002°04'0 0.0
2016-Apr-25 02:31N 47°18' W 002°04'0 0.0
2016-Apr-25 01:31N 47°18' W 002°04'0 0.0
2016-Apr-25 00:31N 47°18' W 002°04'0 0.0
2016-Apr-24 23:31N 47°18' W 002°04'0 0.0
2016-Apr-24 22:31N 47°18' W 002°04'0 0.0
2016-Apr-24 21:31N 47°18' W 002°04'0 0.0
2016-Apr-24 20:31N 47°18' W 002°04'0 0.0
2016-Apr-24 19:31N 47°18' W 002°04'0 0.0
2016-Apr-24 18:31N 47°18' W 002°04'0 0.1
2016-Apr-24 17:33N 47°18' W 002°04'1010.0
2016-Apr-24 16:33N 47°13' W 002°17'8 7.9
2016-Apr-24 15:32N 47°09' W 002°27'0 0.0
2016-Apr-24 14:32N 47°09' W 002°27'0 0.0
2016-Apr-24 13:29N 47°09' W 002°27'0 0.0
2016-Apr-24 12:32N 47°09' W 002°27'0 0.1
2016-Apr-24 11:32N 47°09' W 002°27'0 0.1
2016-Apr-24 10:32N 47°09' W 002°27'0 0.0
2016-Apr-24 09:29N 47°09' W 002°27'0 0.0
2016-Apr-24 08:32N 47°09' W 002°27'0 0.0
2016-Apr-24 07:32N 47°09' W 002°27'0 0.0
2016-Apr-24 06:32N 47°09' W 002°27'0 0.0
2016-Apr-24 05:32N 47°09' W 002°27'0 0.0
2016-Apr-24 04:32N 47°09' W 002°27'0 0.0
2016-Apr-24 03:32N 47°09' W 002°27'0 0.0
2016-Apr-24 02:32N 47°09' W 002°27'0 0.0
2016-Apr-24 01:32N 47°09' W 002°27'0 0.0
2016-Apr-24 00:32N 47°09' W 002°27'0 0.1
2016-Apr-23 23:32N 47°09' W 002°27'0 0.0
2016-Apr-23 22:32N 47°09' W 002°27'0 0.0
2016-Apr-23 21:32N 47°09' W 002°27'0 0.0
2016-Apr-23 20:32N 47°09' W 002°27'0 0.0
2016-Apr-23 19:32N 47°09' W 002°27'0 0.0
2016-Apr-23 18:32N 47°09' W 002°27'0 0.0
2016-Apr-23 17:33N 47°09' W 002°27'0 0.0
2016-Apr-23 16:32N 47°09' W 002°27'0 0.0
2016-Apr-23 15:32N 47°09' W 002°27'0 0.0
2016-Apr-23 14:32N 47°09' W 002°27'0 0.2
2016-Apr-23 13:32N 47°09' W 002°27'0 0.0
2016-Apr-23 12:29N 47°09' W 002°27'0 0.1
2016-Apr-23 11:32N 47°09' W 002°27'0 0.0
2016-Apr-23 10:32N 47°09' W 002°27'0 0.0
2016-Apr-23 09:32N 47°09' W 002°27'0 0.0
2016-Apr-23 08:32N 47°09' W 002°27'0 0.0
2016-Apr-23 07:32N 47°09' W 002°27'0 0.0
2016-Apr-23 06:32N 47°09' W 002°27'0 0.0
2016-Apr-23 05:32N 47°09' W 002°27'0 0.0
2016-Apr-23 04:32N 47°09' W 002°27'0 0.0
2016-Apr-23 03:32N 47°09' W 002°27'0 0.0
2016-Apr-23 02:32N 47°09' W 002°27'0 0.0
2016-Apr-23 01:32N 47°09' W 002°27'0 0.0
2016-Apr-23 00:32N 47°09' W 002°27'0 0.0
2016-Apr-22 23:32N 47°09' W 002°27'0 0.0
2016-Apr-22 22:32N 47°09' W 002°27'0 0.0
2016-Apr-22 21:32N 47°09' W 002°27'0 0.0
2016-Apr-22 20:32N 47°09' W 002°27'0 0.0
2016-Apr-22 19:32N 47°09' W 002°27'0 0.0
2016-Apr-22 18:29N 47°09' W 002°27'0 0.0
2016-Apr-22 17:32N 47°09' W 002°27'0 0.0
2016-Apr-22 16:32N 47°09' W 002°27'0 0.0
2016-Apr-22 15:32N 47°09' W 002°27'0 0.0
2016-Apr-22 14:32N 47°09' W 002°27'0 0.0
2016-Apr-22 13:32N 47°09' W 002°27'0 0.0
2016-Apr-22 12:32N 47°09' W 002°27'0 0.0
2016-Apr-22 11:32N 47°09' W 002°27'0 0.0
2016-Apr-22 10:32N 47°09' W 002°27'0 0.1
2016-Apr-22 09:32N 47°09' W 002°27'0 0.0
2016-Apr-22 08:32N 47°09' W 002°27'0 0.0
2016-Apr-22 07:32N 47°09' W 002°27'0 0.0
2016-Apr-22 06:32N 47°09' W 002°27'0 0.0
2016-Apr-22 05:32N 47°09' W 002°27'0 0.0
2016-Apr-22 04:32N 47°09' W 002°27'0 0.1
2016-Apr-22 03:32N 47°09' W 002°27'0 0.0
2016-Apr-22 02:32N 47°09' W 002°27'0 0.0
2016-Apr-22 01:32N 47°09' W 002°27'0 0.0
2016-Apr-22 00:32N 47°09' W 002°27'0 0.0
2016-Apr-21 23:32N 47°09' W 002°27'0 0.1
2016-Apr-21 22:32N 47°09' W 002°27'0 0.0
2016-Apr-21 21:32N 47°09' W 002°27'0 0.0
2016-Apr-21 20:32N 47°09' W 002°27'0 0.0
2016-Apr-21 19:32N 47°09' W 002°27'0 0.0
2016-Apr-21 18:32N 47°09' W 002°27'0 0.0
2016-Apr-21 17:32N 47°09' W 002°27'  
Track history (hours):
 
Tides and Currents Weather Stations Pressure Air Temp Water Temp Dewpoint Dewpoint Depression Visibility Wind Speed Wind Dir Waves Ship Positions

Eships Dana

Last reported at 2016-May-01 16:33 UTC. Time now 2016-May-01 17:24 UTC.
Position N 49°50' W 002°46'.

Length 116 m; draft 6.7 m.

Type: Tanker. MMSI: 236566000.

Date/timePositionNaut miles runAvg speedWind from/ knotsBaromVisibWave heightAir tempDewpointWater temp
2016-May-01 16:33N 49°50' W 002°46'1615.8
2016-May-01 15:32N 49°43' W 003°09'10215.8
2016-May-01 09:04N 48°50' W 005°22'10011.7
2016-May-01 00:33N 47°24' W 004°07'1514.8
2016-Apr-30 23:33N 47°18' W 003°47'1514.5
2016-Apr-30 22:33N 47°12' W 003°28'1414.3
2016-Apr-30 21:33N 47°06' W 003°08'1313.4
2016-Apr-30 20:33N 47°01' W 002°51'1312.6
2016-Apr-30 19:34N 47°03' W 002°33'1211.5
2016-Apr-30 18:33N 47°10' W 002°19'1111.0
2016-Apr-30 17:33N 47°18' W 002°08'3 2.7
2016-Apr-30 16:29N 47°18' W 002°04'0 0.0
2016-Apr-30 14:29N 47°18' W 002°04'0 0.0
2016-Apr-30 13:32N 47°18' W 002°04'0 0.0
2016-Apr-30 12:11N 47°18' W 002°04'0 0.0
2016-Apr-30 11:26N 47°18' W 002°04'0 0.0
2016-Apr-30 10:32N 47°18' W 002°04'0 0.0
2016-Apr-30 09:11N 47°18' W 002°04'0 0.0
2016-Apr-30 08:29N 47°18' W 002°04'0 0.0
2016-Apr-30 07:32N 47°18' W 002°04'0 0.0
2016-Apr-30 06:29N 47°18' W 002°04'0 0.0
2016-Apr-30 05:29N 47°18' W 002°04'0 0.0
2016-Apr-30 04:32N 47°18' W 002°04'0 0.0
2016-Apr-30 03:32N 47°18' W 002°04'0 0.0
2016-Apr-30 02:32N 47°18' W 002°04'0 0.0
2016-Apr-30 01:32N 47°18' W 002°04'0 0.0
2016-Apr-30 00:32N 47°18' W 002°04'0 0.0
2016-Apr-29 23:32N 47°18' W 002°04'0 0.0
2016-Apr-29 22:32N 47°18' W 002°04'0 0.0
2016-Apr-29 21:32N 47°18' W 002°04'0 0.0
2016-Apr-29 20:32N 47°18' W 002°04'0 0.0
2016-Apr-29 19:32N 47°18' W 002°04'0 0.0
2016-Apr-29 18:32N 47°18' W 002°04'0 0.0
2016-Apr-29 17:32N 47°18' W 002°04'0 0.0
2016-Apr-29 16:32N 47°18' W 002°04'0 0.0
2016-Apr-29 15:29N 47°18' W 002°04'0 0.0
2016-Apr-29 14:32N 47°18' W 002°04'0 0.0
2016-Apr-29 13:32N 47°18' W 002°04'0 0.0
2016-Apr-29 12:14N 47°18' W 002°04'0 0.0
2016-Apr-29 11:32N 47°18' W 002°04'0 0.0
2016-Apr-29 10:32N 47°18' W 002°04'0 0.0
2016-Apr-29 09:32N 47°18' W 002°04'0 0.0
2016-Apr-29 08:33N 47°18' W 002°04'5 4.8
2016-Apr-29 07:33N 47°17' W 002°11'1212.4
2016-Apr-29 06:33N 47°08' W 002°23'2 2.3
2016-Apr-29 05:33N 47°09' W 002°26'0 0.0
2016-Apr-29 04:30N 47°09' W 002°26'0 0.0
2016-Apr-29 03:33N 47°09' W 002°26'0 0.0
2016-Apr-29 02:33N 47°09' W 002°26'0 0.1
2016-Apr-29 01:33N 47°09' W 002°27'0 0.1
2016-Apr-29 00:33N 47°09' W 002°26'0 0.1
2016-Apr-28 23:33N 47°09' W 002°27'0 0.0
2016-Apr-28 22:33N 47°09' W 002°27'0 0.1
2016-Apr-28 21:33N 47°09' W 002°26'0 0.0
2016-Apr-28 20:33N 47°09' W 002°26'0 0.0
2016-Apr-28 19:33N 47°09' W 002°26'0 0.1
2016-Apr-28 18:30N 47°09' W 002°26'0 0.0
2016-Apr-28 17:33N 47°09' W 002°26'0 0.0
2016-Apr-28 16:33N 47°09' W 002°26'0 0.0
2016-Apr-28 15:33N 47°09' W 002°26'0 0.0
2016-Apr-28 14:33N 47°09' W 002°26'0 0.1
2016-Apr-28 13:33N 47°09' W 002°27'0 0.1
2016-Apr-28 12:33N 47°09' W 002°27'0 0.0
2016-Apr-28 11:33N 47°09' W 002°27'0 0.1
2016-Apr-28 10:33N 47°09' W 002°27'0 0.1
2016-Apr-28 09:33N 47°09' W 002°27'0 0.0
2016-Apr-28 08:33N 47°09' W 002°26'0 0.0
2016-Apr-28 07:34N 47°09' W 002°26'0 0.0
2016-Apr-28 06:34N 47°09' W 002°26'0 0.0
2016-Apr-28 05:33N 47°09' W 002°26'0 0.0
2016-Apr-28 04:34N 47°09' W 002°26'0 0.0
2016-Apr-28 03:33N 47°09' W 002°26'0 0.1
2016-Apr-28 02:33N 47°09' W 002°26'0 0.2
2016-Apr-28 01:33N 47°09' W 002°27'0 0.0
2016-Apr-28 00:33N 47°09' W 002°27'0 0.0
2016-Apr-27 23:33N 47°09' W 002°27'0 0.1
2016-Apr-27 22:34N 47°09' W 002°27'0 0.0
2016-Apr-27 21:33N 47°09' W 002°27'0 0.1
2016-Apr-27 20:33N 47°09' W 002°27'0 0.1
2016-Apr-27 19:30N 47°09' W 002°26'0 0.0
2016-Apr-27 18:33N 47°09' W 002°26'0 0.0
2016-Apr-27 17:33N 47°09' W 002°26'0 0.0
2016-Apr-27 16:33N 47°09' W 002°26'0 0.0
2016-Apr-27 15:33N 47°09' W 002°26'0 0.0
2016-Apr-27 14:30N 47°09' W 002°26'0 0.0
2016-Apr-27 13:33N 47°09' W 002°26'0 0.1
2016-Apr-27 12:30N 47°09' W 002°27'0 0.0
2016-Apr-27 11:33N 47°09' W 002°27'0 0.0
2016-Apr-27 10:33N 47°09' W 002°27'0 0.1
2016-Apr-27 09:33N 47°09' W 002°26'0 0.0
2016-Apr-27 08:33N 47°09' W 002°26'0 0.0
2016-Apr-27 07:33N 47°09' W 002°26'0 0.0
2016-Apr-27 06:34N 47°09' W 002°26'0 0.0
2016-Apr-27 05:33N 47°09' W 002°26'0 0.0
2016-Apr-27 04:33N 47°09' W 002°26'0 0.0
2016-Apr-27 03:33N 47°09' W 002°26'0 0.0
2016-Apr-27 02:33N 47°09' W 002°26'0 0.0
2016-Apr-27 01:33N 47°09' W 002°26'0 0.1
2016-Apr-27 00:33N 47°09' W 002°27'0 0.1
2016-Apr-26 23:33N 47°09' W 002°27'0 0.0
2016-Apr-26 22:33N 47°09' W 002°27'0 0.0
2016-Apr-26 21:33N 47°09' W 002°27'0 0.1
2016-Apr-26 20:33N 47°09' W 002°27'0 0.0
2016-Apr-26 19:33N 47°09' W 002°27'7 6.8
2016-Apr-26 18:33N 47°12' W 002°17'1111.1
2016-Apr-26 17:33N 47°18' W 002°04'0 0.3
2016-Apr-26 16:25N 47°18' W 002°04'0 0.0
2016-Apr-26 15:31N 47°18' W 002°04'0 0.0
2016-Apr-26 14:31N 47°18' W 002°04'0 0.0
2016-Apr-26 13:31N 47°18' W 002°04'0 0.0
2016-Apr-26 12:31N 47°18' W 002°04'0 0.0
2016-Apr-26 11:31N 47°18' W 002°04'0 0.0
2016-Apr-26 10:31N 47°18' W 002°04'0 0.0
2016-Apr-26 09:31N 47°18' W 002°04'0 0.0
2016-Apr-26 08:31N 47°18' W 002°04'0 0.0
2016-Apr-26 07:31N 47°18' W 002°04'0 0.0
2016-Apr-26 06:31N 47°18' W 002°04'0 0.0
2016-Apr-26 05:28N 47°18' W 002°04'0 0.0
2016-Apr-26 04:28N 47°18' W 002°04'0 0.0
2016-Apr-26 03:31N 47°18' W 002°04'0 0.0
2016-Apr-26 02:31N 47°18' W 002°04'0 0.0
2016-Apr-26 01:28N 47°18' W 002°04'0 0.0
2016-Apr-26 00:31N 47°18' W 002°04'0 0.0
2016-Apr-25 23:31N 47°18' W 002°04'0 0.0
2016-Apr-25 22:31N 47°18' W 002°04'0 0.0
2016-Apr-25 21:31N 47°18' W 002°04'0 0.0
2016-Apr-25 20:31N 47°18' W 002°04'0 0.0
2016-Apr-25 19:31N 47°18' W 002°04'0 0.0
2016-Apr-25 18:31N 47°18' W 002°04'0 0.0
2016-Apr-25 17:31N 47°18' W 002°04'0 0.0
2016-Apr-25 16:31N 47°18' W 002°04'0 0.0
2016-Apr-25 15:28N 47°18' W 002°04'0 0.0
2016-Apr-25 14:31N 47°18' W 002°04'0 0.0
2016-Apr-25 13:31N 47°18' W 002°04'0 0.0
2016-Apr-25 12:31N 47°18' W 002°04'0 0.0
2016-Apr-25 11:31N 47°18' W 002°04'0 0.0
2016-Apr-25 10:31N 47°18' W 002°04'0 0.0
2016-Apr-25 09:31N 47°18' W 002°04'0 0.0
2016-Apr-25 08:31N 47°18' W 002°04'0 0.0
2016-Apr-25 07:31N 47°18' W 002°04'0 0.0
2016-Apr-25 06:31N 47°18' W 002°04'0 0.0
2016-Apr-25 05:31N 47°18' W 002°04'0 0.0
2016-Apr-25 04:31N 47°18' W 002°04'0 0.0
2016-Apr-25 03:31N 47°18' W 002°04'0 0.0
2016-Apr-25 02:31N 47°18' W 002°04'0 0.0
2016-Apr-25 01:31N 47°18' W 002°04'0 0.0
2016-Apr-25 00:31N 47°18' W 002°04'0 0.0
2016-Apr-24 23:31N 47°18' W 002°04'0 0.0
2016-Apr-24 22:31N 47°18' W 002°04'0 0.0
2016-Apr-24 21:31N 47°18' W 002°04'0 0.0
2016-Apr-24 20:31N 47°18' W 002°04'0 0.0
2016-Apr-24 19:31N 47°18' W 002°04'0 0.0
2016-Apr-24 18:31N 47°18' W 002°04'0 0.1
2016-Apr-24 17:33N 47°18' W 002°04'1010.0
2016-Apr-24 16:33N 47°13' W 002°17'8 7.9
2016-Apr-24 15:32N 47°09' W 002°27'0 0.0
2016-Apr-24 14:32N 47°09' W 002°27'0 0.0
2016-Apr-24 13:29N 47°09' W 002°27'0 0.0
2016-Apr-24 12:32N 47°09' W 002°27'0 0.1
2016-Apr-24 11:32N 47°09' W 002°27'0 0.1
2016-Apr-24 10:32N 47°09' W 002°27'0 0.0
2016-Apr-24 09:29N 47°09' W 002°27'0 0.0
2016-Apr-24 08:32N 47°09' W 002°27'0 0.0
2016-Apr-24 07:32N 47°09' W 002°27'0 0.0
2016-Apr-24 06:32N 47°09' W 002°27'0 0.0
2016-Apr-24 05:32N 47°09' W 002°27'0 0.0
2016-Apr-24 04:32N 47°09' W 002°27'0 0.0
2016-Apr-24 03:32N 47°09' W 002°27'0 0.0
2016-Apr-24 02:32N 47°09' W 002°27'0 0.0
2016-Apr-24 01:32N 47°09' W 002°27'0 0.0
2016-Apr-24 00:32N 47°09' W 002°27'0 0.1
2016-Apr-23 23:32N 47°09' W 002°27'0 0.0
2016-Apr-23 22:32N 47°09' W 002°27'0 0.0
2016-Apr-23 21:32N 47°09' W 002°27'0 0.0
2016-Apr-23 20:32N 47°09' W 002°27'0 0.0
2016-Apr-23 19:32N 47°09' W 002°27'0 0.0
2016-Apr-23 18:32N 47°09' W 002°27'0 0.0
2016-Apr-23 17:33N 47°09' W 002°27'0 0.0
2016-Apr-23 16:32N 47°09' W 002°27'0 0.0
2016-Apr-23 15:32N 47°09' W 002°27'0 0.0
2016-Apr-23 14:32N 47°09' W 002°27'0 0.2
2016-Apr-23 13:32N 47°09' W 002°27'0 0.0
2016-Apr-23 12:29N 47°09' W 002°27'0 0.1
2016-Apr-23 11:32N 47°09' W 002°27'0 0.0
2016-Apr-23 10:32N 47°09' W 002°27'0 0.0
2016-Apr-23 09:32N 47°09' W 002°27'0 0.0
2016-Apr-23 08:32N 47°09' W 002°27'0 0.0
2016-Apr-23 07:32N 47°09' W 002°27'0 0.0
2016-Apr-23 06:32N 47°09' W 002°27'0 0.0
2016-Apr-23 05:32N 47°09' W 002°27'0 0.0
2016-Apr-23 04:32N 47°09' W 002°27'0 0.0
2016-Apr-23 03:32N 47°09' W 002°27'0 0.0
2016-Apr-23 02:32N 47°09' W 002°27'0 0.0
2016-Apr-23 01:32N 47°09' W 002°27'0 0.0
2016-Apr-23 00:32N 47°09' W 002°27'0 0.0
2016-Apr-22 23:32N 47°09' W 002°27'0 0.0
2016-Apr-22 22:32N 47°09' W 002°27'0 0.0
2016-Apr-22 21:32N 47°09' W 002°27'0 0.0
2016-Apr-22 20:32N 47°09' W 002°27'0 0.0
2016-Apr-22 19:32N 47°09' W 002°27'0 0.0
2016-Apr-22 18:29N 47°09' W 002°27'0 0.0
2016-Apr-22 17:32N 47°09' W 002°27'0 0.0
2016-Apr-22 16:32N 47°09' W 002°27'0 0.0
2016-Apr-22 15:32N 47°09' W 002°27'0 0.0
2016-Apr-22 14:32N 47°09' W 002°27'0 0.0
2016-Apr-22 13:32N 47°09' W 002°27'0 0.0
2016-Apr-22 12:32N 47°09' W 002°27'0 0.0
2016-Apr-22 11:32N 47°09' W 002°27'0 0.0
2016-Apr-22 10:32N 47°09' W 002°27'0 0.1
2016-Apr-22 09:32N 47°09' W 002°27'0 0.0
2016-Apr-22 08:32N 47°09' W 002°27'0 0.0
2016-Apr-22 07:32N 47°09' W 002°27'0 0.0
2016-Apr-22 06:32N 47°09' W 002°27'0 0.0
2016-Apr-22 05:32N 47°09' W 002°27'0 0.0
2016-Apr-22 04:32N 47°09' W 002°27'0 0.1
2016-Apr-22 03:32N 47°09' W 002°27'0 0.0
2016-Apr-22 02:32N 47°09' W 002°27'0 0.0
2016-Apr-22 01:32N 47°09' W 002°27'0 0.0
2016-Apr-22 00:32N 47°09' W 002°27'0 0.0
2016-Apr-21 23:32N 47°09' W 002°27'0 0.1
2016-Apr-21 22:32N 47°09' W 002°27'0 0.0
2016-Apr-21 21:32N 47°09' W 002°27'0 0.0
2016-Apr-21 20:32N 47°09' W 002°27'0 0.0
2016-Apr-21 19:32N 47°09' W 002°27'0 0.0
2016-Apr-21 18:32N 47°09' W 002°27'0 0.0
2016-Apr-21 17:32N 47°09' W 002°27'  

Dump ship's entire track history